Terminal Aerodrome Forecast
Issued by NWS Portland, OR

Home | Current Version | Previous Version | Text Only | Print | Product List | Glossary On
Versions: 1 2 3 4 5 6 7 8 9 10 11 12 13 14 15 16
000
FTUS46 KPQR 242330
TAFHIO
TAF
KHIO 242330Z 2500/2524 18010KT P6SM -SHRA SCT015 BKN025 OVC045
     FM250200 20004KT P6SM -SHRA SCT020 BKN035 OVC045
     FM251000 18003KT P6SM BKN022 OVC035
     FM251600 VRB03KT P6SM -SHRA SCT022 BKN035 OVC045
     FM252000 20006KT P6SM VCSH SCT025 BKN045=

USA.gov is the U.S. government's official web portal to all federal, state and local government web resources and services.